createdAt,value
2022-12-20T00:01:49.959Z,8.50
2022-12-20T00:06:46.522Z,9.52
2022-12-20T00:11:42.973Z,9.68
2022-12-20T00:16:39.476Z,10.70
2022-12-20T00:21:36.691Z,10.38
2022-12-20T00:26:34.335Z,10.05
2022-12-20T00:31:32.122Z,10.00
2022-12-20T00:36:30.264Z,10.18
2022-12-20T00:41:29.120Z,10.48
2022-12-20T00:46:26.335Z,10.10
2022-12-20T00:51:30.070Z,10.15
2022-12-20T00:56:26.506Z,10.63
2022-12-20T01:01:25.456Z,8.93
2022-12-20T01:06:23.383Z,9.45
2022-12-20T01:11:31.116Z,8.30
2022-12-20T01:16:32.978Z,11.23
2022-12-20T01:21:29.449Z,8.55
2022-12-20T01:26:28.514Z,10.80
2022-12-20T01:31:25.487Z,9.05
2022-12-20T01:41:22.549Z,11.32
2022-12-20T01:46:20.981Z,9.35
2022-12-20T01:51:18.010Z,9.98
2022-12-20T01:56:14.934Z,11.13
2022-12-20T02:06:15.998Z,9.23
2022-12-20T02:11:19.775Z,9.63
2022-12-20T02:16:23.406Z,9.40
2022-12-20T02:21:46.582Z,8.60
2022-12-20T02:27:08.900Z,9.20
2022-12-20T02:32:19.393Z,7.20
2022-12-20T02:37:15.936Z,7.68
2022-12-20T02:42:14.379Z,7.78
2022-12-20T02:47:14.402Z,10.38
2022-12-20T02:52:13.093Z,8.60
2022-12-20T02:57:23.011Z,8.50
2022-12-20T03:02:19.940Z,7.90
2022-12-20T03:07:17.528Z,9.07
2022-12-20T03:12:16.033Z,6.95
2022-12-20T03:17:12.805Z,7.43
2022-12-20T03:27:05.922Z,5.95
2022-12-20T03:32:02.397Z,10.02
2022-12-20T03:36:59.054Z,9.23
2022-12-20T03:41:55.593Z,7.15
2022-12-20T03:46:52.137Z,8.50
2022-12-20T03:51:48.618Z,8.65
2022-12-20T03:56:45.119Z,7.65
2022-12-20T04:01:41.614Z,7.35
2022-12-20T04:06:38.176Z,7.22
2022-12-20T04:11:34.611Z,6.43
2022-12-20T04:16:31.626Z,8.25
2022-12-20T04:21:33.055Z,8.20
2022-12-20T04:26:29.857Z,7.18
2022-12-20T04:36:22.696Z,7.93
2022-12-20T04:41:22.496Z,7.60
2022-12-20T04:46:19.922Z,6.57
2022-12-20T04:51:17.039Z,8.75
2022-12-20T04:56:21.753Z,8.15
2022-12-20T05:01:19.032Z,8.43
2022-12-20T05:06:16.768Z,8.88
2022-12-20T05:11:13.855Z,8.90
2022-12-20T05:16:10.868Z,8.65
2022-12-20T05:36:46.637Z,10.00
2022-12-20T05:41:57.030Z,9.65
2022-12-20T05:46:54.611Z,9.75
2022-12-20T05:51:51.212Z,9.35
2022-12-20T05:56:47.681Z,11.55
2022-12-20T06:01:44.358Z,8.40
2022-12-20T06:06:40.940Z,11.45
2022-12-20T06:11:37.673Z,9.05
2022-12-20T06:16:34.369Z,8.55
2022-12-20T06:21:32.046Z,9.23
2022-12-20T06:26:35.806Z,10.50
2022-12-20T06:31:32.869Z,9.90
2022-12-20T06:36:29.313Z,8.85
2022-12-20T06:41:25.861Z,10.27
2022-12-20T06:46:23.433Z,9.55
2022-12-20T06:51:21.419Z,7.22
2022-12-20T06:56:17.913Z,9.63
2022-12-20T07:01:14.451Z,8.63
2022-12-20T07:06:10.948Z,7.22
2022-12-20T07:11:08.062Z,9.15
2022-12-20T07:16:05.047Z,11.48
2022-12-20T07:21:03.514Z,10.18
2022-12-20T07:26:01.068Z,10.50
2022-12-20T07:31:01.802Z,10.32
2022-12-20T07:36:05.512Z,9.80
2022-12-20T07:41:07.511Z,10.25
2022-12-20T07:46:05.038Z,8.27
2022-12-20T07:51:07.616Z,10.15
2022-12-20T07:56:05.068Z,11.20
2022-12-20T08:01:01.729Z,10.02
2022-12-20T08:06:00.153Z,9.52
2022-12-20T08:10:57.707Z,11.25
2022-12-20T08:15:54.138Z,8.80
2022-12-20T08:20:50.570Z,10.48
2022-12-20T08:25:47.270Z,9.13
2022-12-20T08:30:43.818Z,11.80
2022-12-20T08:35:40.337Z,11.70
2022-12-20T08:40:36.775Z,10.35
2022-12-20T08:45:33.212Z,12.00
2022-12-20T08:50:29.740Z,13.77
2022-12-20T08:55:29.458Z,12.35
2022-12-20T09:00:26.230Z,11.10
2022-12-20T09:05:22.745Z,14.32
2022-12-20T09:10:19.249Z,11.60
2022-12-20T09:15:15.831Z,10.70
2022-12-20T09:20:12.401Z,10.50
2022-12-20T09:25:09.073Z,12.98
2022-12-20T09:30:06.215Z,11.50
2022-12-20T09:35:03.244Z,11.05
2022-12-20T09:40:01.744Z,10.63
2022-12-20T09:45:06.522Z,13.02
2022-12-20T09:50:04.504Z,10.68
2022-12-20T09:55:01.022Z,10.00
2022-12-20T10:00:00.274Z,11.02
2022-12-20T10:04:57.044Z,9.93
2022-12-20T10:15:14.228Z,10.70
2022-12-20T10:20:22.608Z,8.57
2022-12-20T10:25:23.922Z,10.38
2022-12-20T10:30:24.727Z,10.10
2022-12-20T10:35:31.379Z,12.75
2022-12-20T10:40:53.740Z,10.10
2022-12-20T10:46:02.440Z,11.10
2022-12-20T10:51:16.154Z,10.10
2022-12-20T10:56:23.065Z,8.95
2022-12-20T11:01:20.881Z,12.98
2022-12-20T11:06:18.672Z,8.95
2022-12-20T11:11:17.038Z,10.73
2022-12-20T11:16:35.317Z,9.98
2022-12-20T11:21:50.426Z,8.98
2022-12-20T11:27:03.283Z,9.35
2022-12-20T11:32:30.979Z,9.65
2022-12-20T11:37:34.093Z,10.25
2022-12-20T11:42:44.796Z,10.73
2022-12-20T11:48:03.593Z,9.50
2022-12-20T11:53:05.660Z,9.50
2022-12-20T11:58:27.744Z,8.48
2022-12-20T12:03:32.862Z,7.80
2022-12-20T12:08:40.824Z,7.32
2022-12-20T12:13:40.556Z,7.05
2022-12-20T12:18:40.095Z,7.38
2022-12-20T12:23:45.553Z,9.10
2022-12-20T12:28:41.971Z,6.93
2022-12-20T12:33:52.674Z,8.00
2022-12-20T12:39:01.858Z,6.68
2022-12-20T12:44:32.854Z,7.78
2022-12-20T12:49:30.638Z,7.10
2022-12-20T12:54:36.563Z,11.68
2022-12-20T12:59:32.959Z,9.02
2022-12-20T13:04:55.554Z,8.93
2022-12-20T13:09:52.010Z,10.60
2022-12-20T13:14:49.962Z,11.55
2022-12-20T13:19:52.551Z,12.05
2022-12-20T13:25:00.578Z,9.98
2022-12-20T13:35:02.887Z,9.93
2022-12-20T13:39:59.868Z,11.75
2022-12-20T13:44:57.104Z,9.43
2022-12-20T13:49:53.974Z,10.93
2022-12-20T13:54:54.483Z,9.27
2022-12-20T14:00:00.198Z,9.00
2022-12-20T14:05:04.124Z,8.40
2022-12-20T14:10:03.773Z,14.23
2022-12-20T14:15:02.727Z,13.45
2022-12-20T14:20:07.683Z,7.95
2022-12-20T14:25:14.983Z,8.60
2022-12-20T14:30:28.347Z,8.10
2022-12-20T14:35:25.136Z,9.48
2022-12-20T14:50:38.340Z,14.73
2022-12-20T14:55:39.440Z,13.65
2022-12-20T15:00:36.354Z,14.05
2022-12-20T15:05:36.405Z,11.07
2022-12-20T15:10:34.162Z,8.18
2022-12-20T15:15:37.288Z,9.50
2022-12-20T15:20:33.822Z,10.10
2022-12-20T15:25:36.626Z,9.43
2022-12-20T16:03:41.517Z,13.50
2022-12-20T17:05:51.859Z,12.32
2022-12-20T17:16:02.725Z,14.23
2022-12-20T17:31:34.010Z,12.13
2022-12-20T17:36:37.467Z,9.15
2022-12-20T17:41:35.287Z,13.32
2022-12-20T17:46:32.048Z,11.77
2022-12-20T18:27:55.697Z,8.70
2022-12-20T18:38:23.621Z,13.05
2022-12-20T18:43:20.231Z,11.40
2022-12-20T18:48:16.714Z,12.18
2022-12-20T18:53:13.251Z,10.63
2022-12-20T18:58:09.821Z,8.88
2022-12-20T19:03:06.310Z,11.95
2022-12-20T19:08:08.053Z,12.02
2022-12-20T19:13:06.945Z,14.07
2022-12-20T19:18:16.804Z,15.43
2022-12-20T19:23:13.238Z,14.82
2022-12-20T19:28:09.700Z,13.82
2022-12-20T19:33:14.461Z,15.45
2022-12-20T19:38:12.409Z,14.55
2022-12-20T19:43:09.912Z,16.17
2022-12-20T19:48:08.392Z,16.00
2022-12-20T19:53:05.454Z,13.93
2022-12-20T20:08:25.715Z,13.52
2022-12-20T20:18:34.992Z,15.80
2022-12-20T20:23:31.725Z,15.43
2022-12-20T20:33:30.789Z,14.38
2022-12-20T20:38:29.520Z,16.27
2022-12-20T20:43:26.102Z,14.52
2022-12-20T20:48:22.524Z,15.13
2022-12-20T20:53:20.030Z,15.80
2022-12-20T20:58:16.686Z,15.57
2022-12-20T21:03:13.306Z,19.80
2022-12-20T21:13:06.571Z,17.38
2022-12-20T21:18:03.083Z,17.90
2022-12-20T21:23:00.028Z,16.35
2022-12-20T21:27:57.754Z,16.58
2022-12-20T21:32:54.193Z,16.30
2022-12-20T21:37:50.829Z,14.98
2022-12-20T21:42:47.299Z,14.30
2022-12-20T21:47:43.755Z,16.35
2022-12-20T21:52:40.968Z,16.65
2022-12-20T21:57:37.413Z,15.45
2022-12-20T22:02:34.910Z,14.73
2022-12-20T22:07:32.536Z,14.23
2022-12-20T22:12:28.974Z,14.02
2022-12-20T22:17:27.181Z,13.57
2022-12-20T22:22:25.239Z,13.32
2022-12-20T22:27:21.718Z,13.80
2022-12-20T22:32:20.168Z,12.88
2022-12-20T22:37:16.708Z,13.50
2022-12-20T22:42:13.191Z,14.85
2022-12-20T22:47:09.638Z,13.88
2022-12-20T22:52:07.747Z,14.32
2022-12-20T22:57:04.549Z,14.10
2022-12-20T23:02:01.733Z,13.90
2022-12-20T23:06:58.331Z,14.02
2022-12-20T23:12:13.469Z,13.27
2022-12-20T23:17:10.375Z,14.40
2022-12-20T23:22:25.706Z,14.05
2022-12-20T23:27:22.177Z,12.95
2022-12-20T23:32:18.697Z,14.32
2022-12-20T23:37:15.201Z,14.38
2022-12-20T23:42:11.641Z,13.30
2022-12-20T23:47:08.110Z,12.98
2022-12-20T23:52:04.755Z,15.43
2022-12-20T23:57:01.183Z,13.68
